createdAt,value
2022-11-18T00:00:00.337Z,9.67
2022-11-18T00:01:08.799Z,9.67
2022-11-18T00:03:15.441Z,9.67
2022-11-18T00:04:00.281Z,9.67
2022-11-18T00:05:00.302Z,9.67
2022-11-18T00:06:00.331Z,9.67
2022-11-18T00:07:00.369Z,9.67
2022-11-18T00:08:00.279Z,9.67
2022-11-18T00:09:00.288Z,9.67
2022-11-18T00:10:00.335Z,9.61
2022-11-18T00:11:09.289Z,9.61
2022-11-18T00:12:00.275Z,9.61
2022-11-18T00:13:00.270Z,9.61
2022-11-18T00:14:00.341Z,9.61
2022-11-18T00:15:00.301Z,9.65
2022-11-18T00:16:04.786Z,9.65
2022-11-18T00:17:01.903Z,9.65
2022-11-18T00:18:00.302Z,9.65
2022-11-18T00:19:00.283Z,9.65
2022-11-18T00:20:00.292Z,9.67
2022-11-18T00:21:01.065Z,9.67
2022-11-18T00:22:00.500Z,9.67
2022-11-18T00:23:00.288Z,9.67
2022-11-18T00:24:00.550Z,9.67
2022-11-18T00:25:00.314Z,9.70
2022-11-18T00:26:01.288Z,9.70
2022-11-18T00:27:00.286Z,9.70
2022-11-18T00:28:00.295Z,9.70
2022-11-18T00:29:00.284Z,9.70
2022-11-18T00:30:00.289Z,9.68
2022-11-18T00:31:04.626Z,9.68
2022-11-18T00:32:00.285Z,9.68
2022-11-18T00:33:00.284Z,9.68
2022-11-18T00:34:00.296Z,9.68
2022-11-18T00:35:00.287Z,9.75
2022-11-18T00:36:00.330Z,9.75
2022-11-18T00:37:00.286Z,9.75
2022-11-18T00:38:00.275Z,9.75
2022-11-18T00:39:00.296Z,9.75
2022-11-18T00:40:00.291Z,9.73
2022-11-18T00:41:04.000Z,9.73
2022-11-18T00:42:00.274Z,9.73
2022-11-18T00:43:00.271Z,9.73
2022-11-18T00:44:00.557Z,9.73
2022-11-18T00:45:00.380Z,9.78
2022-11-18T00:46:00.775Z,9.78
2022-11-18T00:47:00.451Z,9.78
2022-11-18T00:48:00.294Z,9.78
2022-11-18T00:49:00.277Z,9.78
2022-11-18T00:50:00.293Z,9.81
2022-11-18T00:51:07.911Z,9.81
2022-11-18T00:52:00.286Z,9.81
2022-11-18T00:53:00.281Z,9.81
2022-11-18T00:54:00.694Z,9.81
2022-11-18T00:55:00.509Z,9.78
2022-11-18T00:56:00.318Z,9.78
2022-11-18T00:57:00.259Z,9.78
2022-11-18T00:58:00.282Z,9.78
2022-11-18T00:59:00.269Z,9.78
2022-11-18T01:00:00.357Z,9.80
2022-11-18T01:01:00.434Z,9.80
2022-11-18T01:02:00.422Z,9.80
2022-11-18T01:03:00.648Z,9.80
2022-11-18T01:04:00.305Z,9.80
2022-11-18T01:05:00.363Z,9.81
2022-11-18T01:06:00.344Z,9.81
2022-11-18T01:07:00.375Z,9.81
2022-11-18T01:08:00.323Z,9.81
2022-11-18T01:09:00.314Z,9.81
2022-11-18T01:10:00.292Z,9.71
2022-11-18T01:11:00.539Z,9.71
2022-11-18T01:12:00.310Z,9.71
2022-11-18T01:13:00.364Z,9.71
2022-11-18T01:14:00.508Z,9.71
2022-11-18T01:15:00.305Z,9.75
2022-11-18T01:16:00.268Z,9.75
2022-11-18T01:17:00.322Z,9.75
2022-11-18T01:18:00.282Z,9.75
2022-11-18T01:19:00.351Z,9.75
2022-11-18T01:20:00.312Z,9.74
2022-11-18T01:21:01.084Z,9.74
2022-11-18T01:22:00.406Z,9.74
2022-11-18T01:23:00.371Z,9.74
2022-11-18T01:24:00.384Z,9.74
2022-11-18T01:25:00.322Z,9.78
2022-11-18T01:26:03.159Z,9.78
2022-11-18T01:27:00.650Z,9.78
2022-11-18T01:28:00.273Z,9.78
2022-11-18T01:29:00.280Z,9.78
2022-11-18T01:30:00.300Z,9.80
2022-11-18T01:31:04.535Z,9.80
2022-11-18T01:32:24.470Z,9.80
2022-11-18T01:33:00.980Z,9.80
2022-11-18T01:34:00.308Z,9.80
2022-11-18T01:35:00.315Z,9.90
2022-11-18T01:36:00.330Z,9.90
2022-11-18T01:37:00.292Z,9.90
2022-11-18T01:38:00.289Z,9.90
2022-11-18T01:39:00.353Z,9.90
2022-11-18T01:40:00.355Z,9.83
2022-11-18T01:41:00.272Z,9.83
2022-11-18T01:42:00.335Z,9.83
2022-11-18T01:43:00.880Z,9.83
2022-11-18T01:44:04.220Z,9.83
2022-11-18T01:45:00.292Z,9.90
2022-11-18T01:46:00.309Z,9.90
2022-11-18T01:47:00.276Z,9.90
2022-11-18T01:48:10.186Z,9.90
2022-11-18T01:49:05.434Z,9.90
2022-11-18T01:50:00.757Z,9.89
2022-11-18T01:51:02.916Z,9.89
2022-11-18T01:52:00.550Z,9.89
2022-11-18T01:53:04.179Z,9.89
2022-11-18T01:54:10.200Z,9.89
2022-11-18T01:55:05.027Z,9.86
2022-11-18T01:56:02.245Z,9.86
2022-11-18T01:57:02.777Z,9.86
2022-11-18T01:58:06.577Z,9.86
2022-11-18T01:59:04.039Z,9.86
2022-11-18T02:00:01.026Z,9.87
2022-11-18T02:01:01.485Z,9.87
2022-11-18T02:02:02.087Z,9.87
2022-11-18T02:03:01.021Z,9.87
2022-11-18T02:04:00.297Z,9.87
2022-11-18T02:05:01.862Z,9.88
2022-11-18T02:06:01.333Z,9.88
2022-11-18T02:07:00.553Z,9.88
2022-11-18T02:08:00.700Z,9.88
2022-11-18T02:09:00.553Z,9.88
2022-11-18T02:10:02.174Z,9.89
2022-11-18T02:11:00.362Z,9.89
2022-11-18T02:12:00.377Z,9.89
2022-11-18T02:13:00.668Z,9.89
2022-11-18T02:14:02.341Z,9.89
2022-11-18T02:15:01.078Z,9.85
2022-11-18T02:16:10.194Z,9.85
2022-11-18T02:17:00.273Z,9.85
2022-11-18T02:18:09.635Z,9.85
2022-11-18T02:19:02.922Z,9.85
2022-11-18T02:20:07.712Z,9.90
2022-11-18T02:21:10.206Z,9.90
2022-11-18T02:22:10.210Z,9.90
2022-11-18T02:23:10.174Z,9.90
2022-11-18T02:24:10.185Z,9.90
2022-11-18T02:25:01.322Z,9.89
2022-11-18T02:26:01.292Z,9.89
2022-11-18T02:27:03.546Z,9.89
2022-11-18T02:28:10.172Z,9.89
2022-11-18T02:29:10.188Z,9.89
2022-11-18T02:30:03.384Z,9.87
2022-11-18T02:31:05.500Z,9.87
2022-11-18T02:32:06.026Z,9.87
2022-11-18T02:33:06.283Z,9.87
2022-11-18T02:34:05.508Z,9.87
2022-11-18T02:35:10.189Z,9.86
2022-11-18T02:36:06.954Z,9.86
2022-11-18T02:37:06.793Z,9.86
2022-11-18T02:38:04.387Z,9.86
2022-11-18T02:39:04.997Z,9.86
2022-11-18T02:40:04.314Z,9.75
2022-11-18T02:41:03.632Z,9.75
2022-11-18T02:42:03.298Z,9.75
2022-11-18T02:43:06.044Z,9.75
2022-11-18T02:44:03.641Z,9.75
2022-11-18T02:45:02.796Z,9.77
2022-11-18T02:46:04.254Z,9.77
2022-11-18T02:47:02.450Z,9.77
2022-11-18T02:48:03.124Z,9.77
2022-11-18T02:49:05.164Z,9.77
2022-11-18T02:50:02.491Z,9.73
2022-11-18T02:51:03.103Z,9.73
2022-11-18T02:52:01.428Z,9.73
2022-11-18T02:53:02.246Z,9.73
2022-11-18T02:54:03.102Z,9.73
2022-11-18T02:55:01.805Z,9.67
2022-11-18T02:56:01.515Z,9.67
2022-11-18T02:57:01.296Z,9.67
2022-11-18T02:58:01.441Z,9.67
2022-11-18T02:59:00.401Z,9.67
2022-11-18T03:00:00.495Z,9.62
2022-11-18T03:01:00.830Z,9.62
2022-11-18T03:02:00.487Z,9.62
2022-11-18T03:03:10.255Z,9.62
2022-11-18T03:04:00.345Z,9.62
2022-11-18T03:05:00.297Z,9.60
2022-11-18T03:06:06.517Z,9.60
2022-11-18T03:07:07.487Z,9.60
2022-11-18T03:08:09.864Z,9.60
2022-11-18T03:09:04.878Z,9.60
2022-11-18T03:10:00.665Z,9.56
2022-11-18T03:11:10.189Z,9.56
2022-11-18T03:12:10.183Z,9.56
2022-11-18T03:13:00.273Z,9.56
2022-11-18T03:14:10.214Z,9.56
2022-11-18T03:15:10.338Z,9.62
2022-11-18T03:16:05.061Z,9.62
2022-11-18T03:17:02.540Z,9.62
2022-11-18T03:18:10.190Z,9.62
2022-11-18T03:19:03.538Z,9.62
2022-11-18T03:20:00.291Z,9.59
2022-11-18T03:21:07.344Z,9.59
2022-11-18T03:22:03.576Z,9.59
2022-11-18T03:23:10.198Z,9.59
2022-11-18T03:24:06.563Z,9.59
2022-11-18T03:25:03.557Z,9.56
2022-11-18T03:26:02.692Z,9.56
2022-11-18T03:27:10.194Z,9.56
2022-11-18T03:28:10.205Z,9.56
2022-11-18T03:29:00.268Z,9.56
2022-11-18T03:30:03.707Z,9.57
2022-11-18T03:31:10.193Z,9.57
2022-11-18T03:32:10.184Z,9.57
2022-11-18T03:33:04.409Z,9.57
2022-11-18T03:34:04.927Z,9.57
2022-11-18T03:35:02.073Z,9.57
2022-11-18T03:36:02.928Z,9.57
2022-11-18T03:37:04.124Z,9.57
2022-11-18T03:38:03.348Z,9.57
2022-11-18T03:39:02.328Z,9.57
2022-11-18T03:40:05.760Z,9.53
2022-11-18T03:41:02.752Z,9.53
2022-11-18T03:42:07.667Z,9.53
2022-11-18T03:43:03.476Z,9.53
2022-11-18T03:44:04.594Z,9.53
2022-11-18T03:45:10.271Z,9.53
2022-11-18T03:46:10.200Z,9.53
2022-11-18T03:47:04.188Z,9.53
2022-11-18T03:48:04.290Z,9.53
2022-11-18T03:49:00.658Z,9.53
2022-11-18T03:50:04.766Z,9.50
2022-11-18T03:51:02.142Z,9.50
2022-11-18T03:52:05.127Z,9.50
2022-11-18T03:53:01.587Z,9.50
2022-11-18T03:54:05.601Z,9.50
2022-11-18T03:55:03.565Z,9.46
2022-11-18T03:56:04.510Z,9.46
2022-11-18T03:57:05.317Z,9.46
2022-11-18T03:58:11.891Z,9.46
2022-11-18T03:59:00.296Z,9.46
2022-11-18T04:00:05.300Z,9.39
2022-11-18T04:01:03.167Z,9.39
2022-11-18T04:02:06.016Z,9.39
2022-11-18T04:03:00.401Z,9.39
2022-11-18T04:04:00.391Z,9.39
2022-11-18T04:05:01.770Z,9.34
2022-11-18T04:06:04.453Z,9.34
2022-11-18T04:07:01.395Z,9.34
2022-11-18T04:08:01.634Z,9.34
2022-11-18T04:09:03.110Z,9.34
2022-11-18T04:11:28.565Z,9.32
2022-11-18T04:11:44.173Z,9.32
2022-11-18T04:12:04.654Z,9.32
2022-11-18T04:13:07.607Z,9.32
2022-11-18T04:14:00.522Z,9.32
2022-11-18T04:15:00.337Z,9.34
2022-11-18T04:16:00.417Z,9.34
2022-11-18T04:17:04.187Z,9.34
2022-11-18T04:18:00.296Z,9.34
2022-11-18T04:19:05.777Z,9.34
2022-11-18T04:20:00.389Z,9.33
2022-11-18T04:21:00.282Z,9.33
2022-11-18T04:22:00.303Z,9.33
2022-11-18T04:23:00.317Z,9.33
2022-11-18T04:24:00.328Z,9.33
2022-11-18T04:25:00.307Z,9.27
2022-11-18T04:26:00.286Z,9.27
2022-11-18T04:27:00.606Z,9.27
2022-11-18T04:28:00.332Z,9.27
2022-11-18T04:29:00.285Z,9.27
2022-11-18T04:30:00.306Z,9.27
2022-11-18T04:31:00.313Z,9.27
2022-11-18T04:32:00.851Z,9.27
2022-11-18T04:33:00.437Z,9.27
2022-11-18T04:34:00.318Z,9.27
2022-11-18T04:35:00.306Z,9.24
2022-11-18T04:36:00.284Z,9.24
2022-11-18T04:37:00.577Z,9.24
2022-11-18T04:38:00.285Z,9.24
2022-11-18T04:39:00.284Z,9.24
2022-11-18T04:40:00.599Z,9.22
2022-11-18T04:41:00.398Z,9.22
2022-11-18T04:42:00.305Z,9.22
2022-11-18T04:43:00.323Z,9.22
2022-11-18T04:44:00.322Z,9.22
2022-11-18T04:45:00.359Z,9.19
2022-11-18T04:46:00.328Z,9.19
2022-11-18T04:47:02.046Z,9.19
2022-11-18T04:48:03.472Z,9.19
2022-11-18T04:49:00.345Z,9.19
2022-11-18T04:50:00.423Z,9.18
2022-11-18T04:51:03.953Z,9.18
2022-11-18T04:52:00.669Z,9.18
2022-11-18T04:53:00.293Z,9.18
2022-11-18T04:54:00.547Z,9.18
2022-11-18T04:55:00.296Z,9.17
2022-11-18T04:56:04.324Z,9.17
2022-11-18T04:57:00.327Z,9.17
2022-11-18T04:58:00.347Z,9.17
2022-11-18T04:59:00.841Z,9.17
2022-11-18T05:00:00.370Z,9.15
2022-11-18T05:01:00.440Z,9.15
2022-11-18T05:02:00.325Z,9.15
2022-11-18T05:03:00.308Z,9.15
2022-11-18T05:04:00.758Z,9.15
2022-11-18T05:05:00.292Z,9.15
2022-11-18T05:06:00.803Z,9.15
2022-11-18T05:07:01.460Z,9.15
2022-11-18T05:08:00.288Z,9.15
2022-11-18T05:09:00.593Z,9.15
2022-11-18T05:10:00.290Z,9.13
2022-11-18T05:11:04.368Z,9.13
2022-11-18T05:12:00.590Z,9.13
2022-11-18T05:13:00.283Z,9.13
2022-11-18T05:14:01.240Z,9.13
2022-11-18T05:15:00.362Z,9.13
2022-11-18T05:16:00.526Z,9.13
2022-11-18T05:17:01.144Z,9.13
2022-11-18T05:18:00.310Z,9.13
2022-11-18T05:19:02.321Z,9.13
2022-11-18T05:20:00.444Z,9.13
2022-11-18T05:21:03.875Z,9.13
2022-11-18T05:22:00.398Z,9.13
2022-11-18T05:23:00.297Z,9.13
2022-11-18T05:24:00.815Z,9.13
2022-11-18T05:25:00.331Z,9.13
2022-11-18T05:26:04.285Z,9.13
2022-11-18T05:27:00.293Z,9.13
2022-11-18T05:28:00.311Z,9.13
2022-11-18T05:29:00.358Z,9.13
2022-11-18T05:30:00.299Z,9.10
2022-11-18T05:31:05.154Z,9.10
2022-11-18T05:32:00.303Z,9.10
2022-11-18T05:33:00.338Z,9.10
2022-11-18T05:34:00.409Z,9.10
2022-11-18T05:35:00.295Z,9.09
2022-11-18T05:36:02.149Z,9.09
2022-11-18T05:37:00.331Z,9.09
2022-11-18T05:38:00.413Z,9.09
2022-11-18T05:39:00.391Z,9.09
2022-11-18T05:40:00.294Z,9.05
2022-11-18T05:41:00.657Z,9.05
2022-11-18T05:42:00.300Z,9.05
2022-11-18T05:43:00.286Z,9.05
2022-11-18T05:44:00.485Z,9.05
2022-11-18T05:45:00.344Z,9.05
2022-11-18T05:46:00.650Z,9.05
2022-11-18T05:47:00.387Z,9.05
2022-11-18T05:48:00.280Z,9.05
2022-11-18T05:49:00.311Z,9.05
2022-11-18T05:50:00.292Z,9.05
2022-11-18T05:51:00.302Z,9.05
2022-11-18T05:52:00.325Z,9.05
2022-11-18T05:53:00.909Z,9.05
2022-11-18T05:54:02.965Z,9.05
2022-11-18T05:55:00.317Z,9.06
2022-11-18T05:56:05.151Z,9.06
2022-11-18T05:57:00.300Z,9.06
2022-11-18T05:58:00.288Z,9.06
2022-11-18T05:59:00.355Z,9.06
2022-11-18T06:00:00.390Z,9.02
2022-11-18T06:01:02.206Z,9.02
2022-11-18T06:02:03.059Z,9.02
2022-11-18T06:03:00.486Z,9.02
2022-11-18T06:04:01.812Z,9.02
2022-11-18T06:05:02.108Z,8.97
2022-11-18T06:06:02.182Z,8.97
2022-11-18T06:07:05.018Z,8.97
2022-11-18T06:08:01.187Z,8.97
2022-11-18T06:09:02.706Z,8.97
2022-11-18T06:10:05.395Z,8.90
2022-11-18T06:11:00.587Z,8.90
2022-11-18T06:12:01.773Z,8.90
2022-11-18T06:13:04.943Z,8.90
2022-11-18T06:14:02.580Z,8.90
2022-11-18T06:15:02.449Z,8.89
2022-11-18T06:16:00.638Z,8.89
2022-11-18T06:17:01.841Z,8.89
2022-11-18T06:18:03.053Z,8.89
2022-11-18T06:19:01.420Z,8.89
2022-11-18T06:20:01.182Z,8.89
2022-11-18T06:21:02.150Z,8.89
2022-11-18T06:22:00.374Z,8.89
2022-11-18T06:23:00.372Z,8.89
2022-11-18T06:24:03.505Z,8.89
2022-11-18T06:25:00.618Z,8.85
2022-11-18T06:26:00.451Z,8.85
2022-11-18T06:27:00.633Z,8.85
2022-11-18T06:28:01.107Z,8.85
2022-11-18T06:29:00.274Z,8.85
2022-11-18T06:30:00.315Z,8.84
2022-11-18T06:31:00.267Z,8.84
2022-11-18T06:32:00.410Z,8.84
2022-11-18T06:33:00.274Z,8.84
2022-11-18T06:34:00.289Z,8.84
2022-11-18T06:35:00.279Z,8.81
2022-11-18T06:36:00.390Z,8.81
2022-11-18T06:37:10.158Z,8.81
2022-11-18T06:38:00.306Z,8.81
2022-11-18T06:39:02.636Z,8.81
2022-11-18T06:40:00.292Z,8.76
2022-11-18T06:41:00.589Z,8.76
2022-11-18T06:42:00.253Z,8.76
2022-11-18T06:43:08.342Z,8.76
2022-11-18T06:44:00.299Z,8.76
2022-11-18T06:45:00.516Z,8.75
2022-11-18T06:46:06.081Z,8.75
2022-11-18T06:47:00.255Z,8.75
2022-11-18T06:48:00.520Z,8.75
2022-11-18T06:49:00.579Z,8.75
2022-11-18T06:50:00.247Z,8.73
2022-11-18T06:51:03.565Z,8.73
2022-11-18T06:52:00.238Z,8.73
2022-11-18T06:53:00.276Z,8.73
2022-11-18T06:54:00.572Z,8.73
2022-11-18T06:55:00.331Z,8.74
2022-11-18T06:56:04.143Z,8.74
2022-11-18T06:57:00.278Z,8.74
2022-11-18T06:58:00.243Z,8.74
2022-11-18T06:59:00.251Z,8.74
2022-11-18T07:00:02.350Z,8.72
2022-11-18T07:01:08.113Z,8.72
2022-11-18T07:02:00.286Z,8.72
2022-11-18T07:03:01.057Z,8.72
2022-11-18T07:04:01.314Z,8.72
2022-11-18T07:08:00.339Z,9.01
2022-11-18T07:09:01.293Z,9.01
2022-11-18T07:10:00.292Z,9.01
2022-11-18T07:11:00.353Z,9.01
2022-11-18T07:12:00.344Z,9.01
2022-11-18T07:13:00.284Z,9.56
2022-11-18T07:14:00.335Z,9.56
2022-11-18T07:15:00.289Z,9.56
2022-11-18T07:16:01.165Z,9.56
2022-11-18T07:17:00.254Z,9.56
2022-11-18T07:18:00.253Z,9.69
2022-11-18T07:19:00.270Z,9.69
2022-11-18T07:20:00.255Z,9.69
2022-11-18T07:21:01.167Z,9.69
2022-11-18T07:22:00.261Z,9.69
2022-11-18T07:23:00.250Z,9.79
2022-11-18T07:24:00.245Z,9.79
2022-11-18T07:25:00.288Z,9.79
2022-11-18T07:26:00.700Z,9.79
2022-11-18T07:27:00.298Z,9.79
2022-11-18T07:28:00.252Z,9.84
2022-11-18T07:29:00.489Z,9.84
2022-11-18T07:30:00.330Z,9.84
2022-11-18T07:31:01.373Z,9.84
2022-11-18T07:32:00.246Z,9.84
2022-11-18T07:33:00.259Z,9.85
2022-11-18T07:34:00.264Z,9.85
2022-11-18T07:35:00.255Z,9.85
2022-11-18T07:36:01.039Z,9.85
2022-11-18T07:37:00.240Z,9.85
2022-11-18T07:38:00.294Z,9.85
2022-11-18T07:39:00.892Z,9.85
2022-11-18T07:40:00.327Z,9.85
2022-11-18T07:41:04.162Z,9.85
2022-11-18T07:42:00.247Z,9.85
2022-11-18T07:43:00.274Z,9.82
2022-11-18T07:44:01.600Z,9.82
2022-11-18T07:45:00.276Z,9.82
2022-11-18T07:46:10.179Z,9.82
2022-11-18T07:47:00.281Z,9.82
2022-11-18T07:48:00.499Z,9.78
2022-11-18T07:49:01.312Z,9.78
2022-11-18T07:50:00.302Z,9.78
2022-11-18T07:51:00.391Z,9.78
2022-11-18T07:52:00.286Z,9.78
2022-11-18T07:53:00.249Z,9.86
2022-11-18T07:54:00.769Z,9.86
2022-11-18T07:55:00.272Z,9.86
2022-11-18T07:56:00.260Z,9.86
2022-11-18T07:57:00.243Z,9.86
2022-11-18T07:58:00.257Z,9.84
2022-11-18T07:59:00.372Z,9.84
2022-11-18T08:00:05.701Z,9.84
2022-11-18T08:01:08.711Z,9.84
2022-11-18T08:02:00.269Z,9.84
2022-11-18T08:03:00.269Z,9.88
2022-11-18T08:04:08.512Z,9.88
2022-11-18T08:05:00.363Z,9.88
2022-11-18T08:06:01.124Z,9.88
2022-11-18T08:07:00.335Z,9.88
2022-11-18T08:08:00.262Z,9.86
2022-11-18T08:09:00.610Z,9.86
2022-11-18T08:10:00.389Z,9.86
2022-11-18T08:11:01.813Z,9.86
2022-11-18T08:12:00.249Z,9.86
2022-11-18T08:13:00.243Z,9.89
2022-11-18T08:14:00.565Z,9.89
2022-11-18T08:15:00.308Z,9.89
2022-11-18T08:16:00.461Z,9.89
2022-11-18T08:17:00.274Z,9.89
2022-11-18T08:18:00.298Z,9.92
2022-11-18T08:19:00.259Z,9.92
2022-11-18T08:20:00.278Z,9.92
2022-11-18T08:21:01.150Z,9.92
2022-11-18T08:22:00.257Z,9.92
2022-11-18T08:23:00.360Z,9.96
2022-11-18T08:24:00.273Z,9.96
2022-11-18T08:25:00.276Z,9.96
2022-11-18T08:26:02.391Z,9.96
2022-11-18T08:27:00.254Z,9.96
2022-11-18T08:28:00.266Z,9.99
2022-11-18T08:29:00.480Z,9.99
2022-11-18T08:30:00.295Z,9.99
2022-11-18T08:31:07.499Z,9.99
2022-11-18T08:32:00.450Z,9.99
2022-11-18T08:33:00.423Z,9.91
2022-11-18T08:34:01.227Z,9.91
2022-11-18T08:35:00.320Z,9.91
2022-11-18T08:36:04.708Z,9.91
2022-11-18T08:37:00.293Z,9.91
2022-11-18T08:38:00.285Z,9.93
2022-11-18T08:39:01.125Z,9.93
2022-11-18T08:40:00.263Z,9.93
2022-11-18T08:41:00.404Z,9.93
2022-11-18T08:42:00.320Z,9.93
2022-11-18T08:43:00.281Z,9.92
2022-11-18T08:44:00.529Z,9.92
2022-11-18T08:45:00.284Z,9.92
2022-11-18T08:46:00.294Z,9.92
2022-11-18T08:47:00.329Z,9.92
2022-11-18T08:48:00.270Z,9.88
2022-11-18T08:49:00.327Z,9.88
2022-11-18T08:50:00.689Z,9.88
2022-11-18T08:51:00.697Z,9.88
2022-11-18T08:52:00.248Z,9.88
2022-11-18T08:53:00.312Z,9.84
2022-11-18T08:54:00.326Z,9.84
2022-11-18T08:55:00.342Z,9.84
2022-11-18T08:56:00.269Z,9.84
2022-11-18T08:57:00.347Z,9.84
2022-11-18T08:58:00.243Z,9.85
2022-11-18T08:59:00.418Z,9.85
2022-11-18T09:00:00.595Z,9.85
2022-11-18T09:01:03.948Z,9.85
2022-11-18T09:02:00.381Z,9.85
2022-11-18T09:03:00.278Z,9.85
2022-11-18T09:04:00.291Z,9.85
2022-11-18T09:05:00.270Z,9.85
2022-11-18T09:06:09.256Z,9.85
2022-11-18T09:07:00.845Z,9.85
2022-11-18T09:08:00.280Z,9.85
2022-11-18T09:09:05.979Z,9.85
2022-11-18T09:10:00.354Z,9.85
2022-11-18T09:11:09.004Z,9.85
2022-11-18T09:12:00.245Z,9.85
2022-11-18T09:13:24.811Z,9.85
2022-11-18T09:15:05.849Z,9.85
2022-11-18T09:15:14.553Z,9.85
2022-11-18T09:16:00.829Z,9.85
2022-11-18T09:17:00.533Z,9.85
2022-11-18T09:18:00.323Z,9.89
2022-11-18T09:19:18.145Z,9.89
2022-11-18T09:20:00.431Z,9.89
2022-11-18T09:21:05.482Z,9.89
2022-11-18T09:22:00.304Z,9.89
2022-11-18T09:23:00.243Z,9.90
2022-11-18T09:24:02.590Z,9.90
2022-11-18T09:25:00.279Z,9.90
2022-11-18T09:26:01.322Z,9.90
2022-11-18T09:27:02.090Z,9.90
2022-11-18T09:28:00.249Z,9.94
2022-11-18T09:29:00.233Z,9.94
2022-11-18T09:30:00.492Z,9.94
2022-11-18T09:31:03.990Z,9.94
2022-11-18T09:32:01.009Z,9.94
2022-11-18T09:33:00.282Z,9.95
2022-11-18T09:34:00.250Z,9.95
2022-11-18T09:35:00.328Z,9.95
2022-11-18T09:36:00.589Z,9.95
2022-11-18T09:37:01.954Z,9.95
2022-11-18T09:38:00.259Z,9.97
2022-11-18T09:39:00.278Z,9.97
2022-11-18T09:40:00.400Z,9.97
2022-11-18T09:41:10.185Z,9.97
2022-11-18T09:42:10.154Z,9.97
2022-11-18T09:43:09.210Z,10.10
2022-11-18T09:44:10.194Z,10.10
2022-11-18T09:45:13.844Z,10.10
2022-11-18T09:46:04.255Z,10.10
2022-11-18T09:47:10.176Z,10.10
2022-11-18T09:48:05.897Z,10.17
2022-11-18T09:49:02.649Z,10.17
2022-11-18T09:50:20.398Z,10.17
2022-11-18T09:51:00.267Z,10.17
2022-11-18T09:52:01.605Z,10.17
2022-11-18T09:53:00.239Z,10.26
2022-11-18T09:54:00.310Z,10.26
2022-11-18T09:55:00.300Z,10.26
2022-11-18T09:56:01.700Z,10.26
2022-11-18T09:57:00.612Z,10.26
2022-11-18T09:58:00.565Z,10.37
2022-11-18T09:59:02.370Z,10.37
2022-11-18T10:00:00.510Z,10.37
2022-11-18T10:01:00.770Z,10.37
2022-11-18T10:02:10.232Z,10.37
2022-11-18T10:03:03.052Z,10.47
2022-11-18T10:04:00.250Z,10.47
2022-11-18T10:05:06.610Z,10.47
2022-11-18T10:06:00.274Z,10.47
2022-11-18T10:07:05.694Z,10.47
2022-11-18T10:08:10.173Z,10.51
2022-11-18T10:09:10.182Z,10.51
2022-11-18T10:10:02.540Z,10.51
2022-11-18T10:11:01.251Z,10.51
2022-11-18T10:12:07.684Z,10.51
2022-11-18T10:13:08.708Z,10.64
2022-11-18T10:14:10.175Z,10.64
2022-11-18T10:15:10.175Z,10.64
2022-11-18T10:16:08.991Z,10.64
2022-11-18T10:17:07.702Z,10.64
2022-11-18T10:18:01.260Z,10.72
2022-11-18T10:19:10.163Z,10.72
2022-11-18T10:20:07.687Z,10.72
2022-11-18T10:21:10.175Z,10.72
2022-11-18T10:22:17.998Z,10.72
2022-11-18T10:23:00.232Z,10.81
2022-11-18T10:24:06.124Z,10.81
2022-11-18T10:25:00.359Z,10.81
2022-11-18T10:26:00.310Z,10.81
2022-11-18T10:27:00.459Z,10.81
2022-11-18T10:28:10.186Z,10.88
2022-11-18T10:29:00.313Z,10.88
2022-11-18T10:30:00.625Z,10.88
2022-11-18T10:31:04.934Z,10.88
2022-11-18T10:32:03.832Z,10.88
2022-11-18T10:33:01.609Z,10.92
2022-11-18T10:34:00.367Z,10.92
2022-11-18T10:35:00.259Z,10.92
2022-11-18T10:36:09.040Z,10.92
2022-11-18T10:37:02.805Z,10.92
2022-11-18T10:38:07.796Z,11.01
2022-11-18T10:39:10.167Z,11.01
2022-11-18T10:40:01.477Z,11.01
2022-11-18T10:41:01.741Z,11.01
2022-11-18T10:42:03.472Z,11.01
2022-11-18T10:43:00.278Z,11.11
2022-11-18T10:44:00.260Z,11.11
2022-11-18T10:45:10.183Z,11.11
2022-11-18T10:46:10.174Z,11.11
2022-11-18T10:47:10.188Z,11.11
2022-11-18T10:48:00.256Z,11.20
2022-11-18T10:49:07.708Z,11.20
2022-11-18T10:50:01.291Z,11.20
2022-11-18T10:51:10.172Z,11.20
2022-11-18T10:52:07.928Z,11.20
2022-11-18T10:53:00.586Z,11.16
2022-11-18T10:54:09.668Z,11.16
2022-11-18T10:55:10.215Z,11.16
2022-11-18T10:56:01.419Z,11.16
2022-11-18T10:57:04.927Z,11.16
2022-11-18T10:58:09.531Z,11.29
2022-11-18T10:59:01.275Z,11.29
2022-11-18T11:00:00.362Z,11.29
2022-11-18T11:01:05.222Z,11.29
2022-11-18T11:02:04.140Z,11.29
2022-11-18T11:03:00.519Z,11.32
2022-11-18T11:04:10.203Z,11.32
2022-11-18T11:05:02.827Z,11.32
2022-11-18T11:06:10.165Z,11.32
2022-11-18T11:07:10.240Z,11.32
2022-11-18T11:08:28.960Z,11.47
2022-11-18T11:09:01.793Z,11.47
2022-11-18T11:10:03.532Z,11.47
2022-11-18T11:11:00.238Z,11.47
2022-11-18T11:12:03.313Z,11.47
2022-11-18T11:13:08.404Z,11.46
2022-11-18T11:14:05.065Z,11.46
2022-11-18T11:15:03.129Z,11.46
2022-11-18T11:16:02.306Z,11.46
2022-11-18T11:17:03.835Z,11.46
2022-11-18T11:18:03.469Z,11.63
2022-11-18T11:19:01.863Z,11.63
2022-11-18T11:20:03.572Z,11.63
2022-11-18T11:21:00.261Z,11.63
2022-11-18T11:22:00.242Z,11.63
2022-11-18T11:23:00.376Z,11.73
2022-11-18T11:24:00.267Z,11.73
2022-11-18T11:25:00.330Z,11.73
2022-11-18T11:29:10.156Z,11.88
2022-11-18T11:30:00.224Z,11.88
2022-11-18T11:31:09.063Z,11.88
2022-11-18T11:32:06.802Z,11.88
2022-11-18T11:33:00.228Z,12.04
2022-11-18T11:34:10.161Z,12.04
2022-11-18T11:35:01.238Z,12.04
2022-11-18T11:36:10.166Z,12.04
2022-11-18T11:37:01.268Z,12.04
2022-11-18T11:38:05.385Z,12.12
2022-11-18T11:39:10.182Z,12.12
2022-11-18T11:40:10.235Z,12.12
2022-11-18T11:41:05.619Z,12.12
2022-11-18T11:42:10.159Z,12.12
2022-11-18T11:43:10.155Z,12.26
2022-11-18T11:44:10.154Z,12.26
2022-11-18T11:45:01.275Z,12.26
2022-11-18T11:46:00.221Z,12.26
2022-11-18T11:47:00.245Z,12.26
2022-11-18T11:48:10.157Z,12.21
2022-11-18T11:49:10.181Z,12.21
2022-11-18T11:50:01.360Z,12.21
2022-11-18T11:51:05.344Z,12.21
2022-11-18T11:52:03.702Z,12.21
2022-11-18T11:53:00.230Z,12.40
2022-11-18T11:54:10.166Z,12.40
2022-11-18T11:55:00.224Z,12.40
2022-11-18T11:56:08.942Z,12.40
2022-11-18T11:57:04.556Z,12.40
2022-11-18T11:58:10.156Z,12.42
2022-11-18T11:59:00.239Z,12.42
2022-11-18T12:00:07.193Z,12.42
2022-11-18T12:01:08.815Z,12.42
2022-11-18T12:02:00.224Z,12.42
2022-11-18T12:03:00.254Z,12.41
2022-11-18T12:04:10.164Z,12.41
2022-11-18T12:05:10.193Z,12.41
2022-11-18T12:06:00.233Z,12.41
2022-11-18T12:07:06.731Z,12.41
2022-11-18T12:08:03.610Z,12.43
2022-11-18T12:09:03.494Z,12.43
2022-11-18T12:10:03.483Z,12.43
2022-11-18T12:11:00.268Z,12.43
2022-11-18T12:12:10.152Z,12.43
2022-11-18T12:13:10.155Z,12.33
2022-11-18T12:14:09.477Z,12.33
2022-11-18T12:15:07.684Z,12.33
2022-11-18T12:16:10.152Z,12.33
2022-11-18T12:17:00.266Z,12.33
2022-11-18T12:18:10.150Z,12.34
2022-11-18T12:19:06.718Z,12.34
2022-11-18T12:20:10.222Z,12.34
2022-11-18T12:21:00.250Z,12.34
2022-11-18T12:22:00.241Z,12.34
2022-11-18T12:23:08.381Z,12.34
2022-11-18T12:24:10.155Z,12.34
2022-11-18T12:25:10.174Z,12.34
2022-11-18T12:26:01.893Z,12.34
2022-11-18T12:27:01.571Z,12.34
2022-11-18T12:28:00.295Z,12.43
2022-11-18T12:29:10.154Z,12.43
2022-11-18T12:30:00.856Z,12.43
2022-11-18T12:31:10.171Z,12.43
2022-11-18T12:32:00.728Z,12.43
2022-11-18T12:33:00.318Z,12.46
2022-11-18T12:34:03.397Z,12.46
2022-11-18T12:35:03.184Z,12.46
2022-11-18T12:36:00.304Z,12.46
2022-11-18T12:37:10.164Z,12.46
2022-11-18T12:38:00.966Z,12.42
2022-11-18T12:39:10.180Z,12.42
2022-11-18T12:40:00.374Z,12.42
2022-11-18T12:41:00.343Z,12.42
2022-11-18T12:42:00.988Z,12.42
2022-11-18T12:43:00.779Z,12.51
2022-11-18T12:44:00.213Z,12.51
2022-11-18T12:45:10.195Z,12.51
2022-11-18T12:46:00.240Z,12.51
2022-11-18T12:47:01.085Z,12.51
2022-11-18T12:48:00.250Z,12.49
2022-11-18T12:49:10.158Z,12.49
2022-11-18T12:50:01.251Z,12.49
2022-11-18T12:51:01.651Z,12.49
2022-11-18T12:52:01.953Z,12.49
2022-11-18T12:53:00.358Z,12.52
2022-11-18T12:54:13.784Z,12.52
2022-11-18T12:55:01.380Z,12.52
2022-11-18T12:56:08.689Z,12.52
2022-11-18T12:57:10.152Z,12.52
2022-11-18T12:58:00.236Z,12.56
2022-11-18T12:59:00.794Z,12.56
2022-11-18T13:00:10.186Z,12.56
2022-11-18T13:01:04.269Z,12.56
2022-11-18T13:02:01.060Z,12.56
2022-11-18T13:03:00.657Z,12.67
2022-11-18T13:04:10.159Z,12.67
2022-11-18T13:05:04.455Z,12.67
2022-11-18T13:06:03.557Z,12.67
2022-11-18T13:07:01.506Z,12.67
2022-11-18T13:08:03.495Z,12.84
2022-11-18T13:09:01.434Z,12.84
2022-11-18T13:10:01.194Z,12.84
2022-11-18T13:11:06.776Z,12.84
2022-11-18T13:12:02.544Z,12.84
2022-11-18T13:13:01.125Z,12.85
2022-11-18T13:14:01.456Z,12.85
2022-11-18T13:15:00.791Z,12.85
2022-11-18T13:16:04.252Z,12.85
2022-11-18T13:17:00.540Z,12.85
2022-11-18T13:18:10.166Z,12.80